Time;durP1;ratioP1;P1;durP2;ratioP2;P2;SDS_P1;SDS_P2;PMS_P1;PMS_P2;Temp;Humidity;BMP_temperature;BMP_pressure;BME280_temperature;BME280_humidity;BME280_pressure;Samples;Min_cycle;Max_cycle;Signal;HPM_P1;HPM_P2
2023/10/16 00:02:12;;;;;;;15.68;2.92;;;;;;;5.58;100.00;98033.19;5157447;27;20050;-57
2023/10/16 00:04:38;;;;;;;9.52;2.67;;;;;;;5.58;100.00;98042.13;5157672;27;20404;-57
2023/10/16 00:07:03;;;;;;;13.57;3.20;;;;;;;5.70;100.00;98049.34;5160902;27;20053;-56
2023/10/16 00:09:30;;;;;;;13.27;3.13;;;;;;;5.64;100.00;98023.59;5161166;27;20069;-55
2023/10/16 00:11:58;;;;;;;7.45;2.63;;;;;;;5.43;100.00;98003.00;5160793;27;20046;-59
2023/10/16 00:14:24;;;;;;;5.35;2.85;;;;;;;5.52;100.00;98048.19;5161144;27;20391;-61
2023/10/16 00:16:50;;;;;;;9.75;3.42;;;;;;;5.51;100.00;98043.91;5161006;27;20043;-57
2023/10/16 00:19:16;;;;;;;13.93;3.42;;;;;;;5.48;100.00;98082.69;5161067;27;20057;-56
2023/10/16 00:21:44;;;;;;;34.75;6.40;;;;;;;5.47;100.00;98051.22;5160688;27;20064;-59
2023/10/16 00:24:10;;;;;;;16.17;3.50;;;;;;;5.46;100.00;98030.59;5160453;27;20054;-58
2023/10/16 00:26:35;;;;;;;18.80;4.47;;;;;;;5.47;100.00;98032.97;5160927;27;20053;-59
2023/10/16 00:29:16;;;;;;;10.57;2.88;;;;;;;5.46;100.00;98012.34;5160636;27;20093;-59
2023/10/16 00:31:43;;;;;;;19.63;4.10;;;;;;;5.16;100.00;98010.25;5160821;27;20047;-56
2023/10/16 00:34:09;;;;;;;8.00;3.17;;;;;;;5.30;100.00;98041.53;5160439;27;20061;-56
2023/10/16 00:36:36;;;;;;;19.90;4.28;;;;;;;5.15;100.00;98062.97;5160826;27;20043;-59
2023/10/16 00:39:12;;;;;;;10.13;3.08;;;;;;;5.23;100.00;98129.16;5160347;27;20051;-58
2023/10/16 00:41:38;;;;;;;29.15;5.50;;;;;;;5.06;100.00;98122.16;5160187;27;20046;-59
2023/10/16 00:44:05;;;;;;;11.10;2.63;;;;;;;5.14;100.00;98128.56;5160480;27;20057;-59
2023/10/16 00:46:36;;;;;;;11.15;3.17;;;;;;;5.02;100.00;98134.88;5160466;27;20051;-59
2023/10/16 00:49:04;;;;;;;15.57;3.28;;;;;;;5.13;100.00;98159.56;5160709;27;20047;-59
2023/10/16 00:51:32;;;;;;;14.02;3.45;;;;;;;5.01;100.00;98152.31;5160374;27;20416;-60
2023/10/16 00:53:59;;;;;;;31.20;5.97;;;;;;;4.94;100.00;98187.47;5160456;27;20050;-61
2023/10/16 00:56:28;;;;;;;21.27;2.90;;;;;;;4.88;100.00;98197.00;5160271;27;20051;-61
2023/10/16 00:58:55;;;;;;;13.30;3.28;;;;;;;4.97;100.00;98205.00;5160470;27;20047;-60
2023/10/16 01:01:22;;;;;;;15.85;3.67;;;;;;;5.03;100.00;98228.03;5159999;27;20051;-56
2023/10/16 01:03:49;;;;;;;13.07;3.28;;;;;;;4.92;100.00;98212.25;5160288;27;20388;-55
2023/10/16 01:06:31;;;;;;;12.98;2.97;;;;;;;5.01;100.00;98222.16;5159845;27;20332;-57
2023/10/16 01:08:58;;;;;;;14.98;3.75;;;;;;;4.95;100.00;98246.06;5160049;27;20078;-54
2023/10/16 01:11:26;;;;;;;12.48;3.55;;;;;;;4.80;100.00;98254.97;5160024;27;20058;-56
2023/10/16 01:13:54;;;;;;;23.17;4.93;;;;;;;4.83;100.00;98262.44;5159925;27;20055;-56
2023/10/16 01:16:20;;;;;;;12.98;3.28;;;;;;;4.69;100.00;98246.56;5159296;27;20051;-56
2023/10/16 01:18:47;;;;;;;18.00;5.13;;;;;;;4.70;100.00;98281.53;5159407;27;20043;-58
2023/10/16 01:21:14;;;;;;;25.27;4.43;;;;;;;4.87;100.00;98285.06;5160012;27;20137;-58
2023/10/16 01:23:44;;;;;;;14.68;4.50;;;;;;;4.81;100.00;98295.38;5159551;27;20360;-60
2023/10/16 01:26:10;;;;;;;11.88;3.50;;;;;;;4.83;100.00;98274.13;5160037;27;20408;-60
2023/10/16 01:28:36;;;;;;;20.27;4.72;;;;;;;4.78;100.00;98249.13;5159693;27;20051;-60
2023/10/16 01:31:04;;;;;;;29.77;6.90;;;;;;;4.79;100.00;98237.13;5159856;27;20051;-59
2023/10/16 01:33:30;;;;;;;11.68;3.17;;;;;;;4.73;100.00;98282.75;5159957;27;20837;-61
2023/10/16 01:35:56;;;;;;;11.40;3.38;;;;;;;4.54;100.00;98291.56;5159489;27;20046;-56
2023/10/16 01:38:24;;;;;;;16.50;3.38;;;;;;;4.70;100.00;98333.13;5159675;27;20068;-57
2023/10/16 01:41:05;;;;;;;7.53;2.95;;;;;;;4.56;100.00;98315.63;5159257;27;20491;-60
2023/10/16 01:43:32;;;;;;;19.40;3.38;;;;;;;4.59;100.00;98328.50;5159490;27;20062;-59
2023/10/16 01:46:02;;;;;;;10.25;3.28;;;;;;;4.57;100.00;98350.59;5159263;27;20061;-56
2023/10/16 01:48:28;;;;;;;20.83;3.95;;;;;;;4.58;100.00;98365.72;5159673;27;20043;-56
2023/10/16 01:50:54;;;;;;;16.80;3.42;;;;;;;4.64;100.00;98366.28;5159178;27;20054;-60
2023/10/16 01:53:25;;;;;;;25.77;4.78;;;;;;;4.61;100.00;98350.69;5159629;27;20061;-54
2023/10/16 01:55:54;;;;;;;23.40;4.18;;;;;;;4.65;100.00;98357.78;5159394;27;20137;-54
2023/10/16 01:58:41;;;;;;;26.48;3.70;;;;;;;4.44;100.00;98393.25;5159257;27;20051;-59
2023/10/16 02:01:08;;;;;;;7.60;3.13;;;;;;;4.40;100.00;98430.34;5159186;27;20480;-53
2023/10/16 02:03:34;;;;;;;13.32;3.88;;;;;;;4.52;100.00;98432.25;5158962;27;20207;-59
2023/10/16 02:06:01;;;;;;;10.77;3.00;;;;;;;4.58;100.00;98430.09;5159322;27;20141;-61
2023/10/16 02:08:26;;;;;;;13.77;2.80;;;;;;;4.41;100.00;98418.38;5158971;27;20046;-58
2023/10/16 02:10:53;;;;;;;11.88;2.95;;;;;;;4.53;100.00;98438.47;5159262;27;20137;-59
2023/10/16 02:13:19;;;;;;;13.15;3.78;;;;;;;4.31;100.00;98456.81;5158802;27;20137;-58
2023/10/16 02:15:45;;;;;;;11.60;3.35;;;;;;;4.32;100.00;98474.69;5159244;27;20051;-59
2023/10/16 02:18:20;;;;;;;10.75;3.30;;;;;;;4.42;100.00;98463.34;5158886;27;20141;-56
2023/10/16 02:20:46;;;;;;;10.07;3.45;;;;;;;4.45;100.00;98451.03;5159095;27;20051;-58
2023/10/16 02:23:12;;;;;;;15.60;4.05;;;;;;;4.37;100.00;98443.81;5158827;27;20397;-58
2023/10/16 02:25:38;;;;;;;12.43;3.25;;;;;;;4.36;100.00;98444.94;5158770;27;20133;-58
2023/10/16 02:28:07;;;;;;;16.90;3.08;;;;;;;4.42;100.00;98436.22;5158602;27;20099;-60
2023/10/16 02:30:38;;;;;;;20.77;4.50;;;;;;;4.34;100.00;98426.28;5158487;27;20047;-59
2023/10/16 02:33:12;;;;;;;17.92;3.60;;;;;;;4.24;100.00;98462.03;5158909;27;20319;-54
2023/10/16 02:35:40;;;;;;;;;;;;;;;4.26;100.00;98462.47;5158969;27;20050;-55
2023/10/16 02:38:06;;;;;;;15.55;3.92;;;;;;;4.24;100.00;98475.59;5159161;27;19933;-54
2023/10/16 02:40:32;;;;;;;23.70;6.10;;;;;;;4.20;100.00;98472.78;5158543;27;20054;-55
2023/10/16 02:43:01;;;;;;;20.17;4.70;;;;;;;4.22;100.00;98465.06;5158732;27;20051;-53
2023/10/16 02:45:32;;;;;;;17.52;3.47;;;;;;;4.24;100.00;98481.03;5158595;27;20081;-57
2023/10/16 02:47:58;;;;;;;12.20;3.63;;;;;;;4.30;100.00;98466.09;5158449;27;20388;-58
2023/10/16 02:50:26;;;;;;;8.68;3.60;;;;;;;4.30;100.00;98447.09;5158507;27;20141;-57
2023/10/16 02:52:52;;;;;;;23.13;4.57;;;;;;;4.18;100.00;98426.19;5158169;27;20475;-60
2023/10/16 02:55:18;;;;;;;20.75;3.83;;;;;;;3.98;100.00;98446.09;5158527;27;20047;-59
2023/10/16 02:57:44;;;;;;;14.13;3.50;;;;;;;4.06;100.00;98475.00;5158241;27;20047;-57
2023/10/16 03:00:17;;;;;;;32.90;6.88;;;;;;;4.14;100.00;98471.41;5158476;27;20073;-54
2023/10/16 03:02:47;;;;;;;15.65;4.13;;;;;;;3.95;100.00;98452.19;5158082;27;20335;-57
2023/10/16 03:05:22;;;;;;;17.17;4.55;;;;;;;3.99;100.00;98486.41;5158497;27;20043;-60
2023/10/16 03:07:49;;;;;;;26.17;4.63;;;;;;;3.92;100.00;98497.03;5157871;27;20335;-60
2023/10/16 03:10:16;;;;;;;9.43;3.28;;;;;;;3.88;100.00;98506.97;5158164;27;20050;-56
2023/10/16 03:12:42;;;;;;;14.98;4.32;;;;;;;3.99;100.00;98512.75;5158166;27;20058;-59
2023/10/16 03:15:16;;;;;;;31.30;7.15;;;;;;;3.97;100.00;98517.75;5158094;27;20369;-56
2023/10/16 03:17:41;;;;;;;11.98;4.03;;;;;;;4.01;100.00;98526.78;5158070;27;20071;-59
2023/10/16 03:20:18;;;;;;;28.27;5.35;;;;;;;3.96;100.00;98521.56;5157912;27;20053;-59
2023/10/16 03:22:46;;;;;;;15.80;3.85;;;;;;;3.86;100.00;98530.13;5158147;27;20137;-53
2023/10/16 03:25:25;;;;;;;15.90;5.15;;;;;;;3.89;100.00;98541.09;5157825;27;20054;-57
2023/10/16 03:27:51;;;;;;;14.30;3.95;;;;;;;3.89;100.00;98535.66;5158256;27;20200;-59
2023/10/16 03:30:19;;;;;;;15.38;3.83;;;;;;;3.73;100.00;98532.00;5157606;27;20141;-60
2023/10/16 03:32:46;;;;;;;13.32;4.45;;;;;;;3.82;100.00;98554.41;5158007;27;20053;-59
2023/10/16 03:35:20;;;;;;;18.25;4.78;;;;;;;3.76;100.00;98559.25;5157480;27;20083;-56
2023/10/16 03:37:49;;;;;;;14.15;3.80;;;;;;;3.72;100.00;98562.97;5157833;27;20058;-57
2023/10/16 03:40:16;;;;;;;11.70;3.75;;;;;;;3.88;100.00;98561.22;5159017;27;20055;-56
2023/10/16 03:42:43;;;;;;;12.75;3.75;;;;;;;3.95;100.00;98544.38;5161318;27;20050;-56
2023/10/16 03:45:09;;;;;;;10.45;3.28;;;;;;;3.81;100.00;98533.84;5161543;27;20057;-57
2023/10/16 03:47:35;;;;;;;16.35;4.40;;;;;;;3.87;100.00;98524.38;5160999;27;20042;-57
2023/10/16 03:50:03;;;;;;;36.28;6.90;;;;;;;3.93;100.00;98531.19;5161544;27;20141;-56
2023/10/16 03:52:30;;;;;;;24.35;5.05;;;;;;;3.93;100.00;98525.75;5161091;27;20047;-59
2023/10/16 03:54:55;;;;;;;24.25;6.50;;;;;;;3.99;100.00;98539.88;5161571;27;20050;-59
2023/10/16 03:57:23;;;;;;;14.98;5.22;;;;;;;4.06;100.00;98548.25;5160892;27;20050;-60
2023/10/16 03:59:49;;;;;;;18.05;4.28;;;;;;;4.25;100.00;98548.50;5160835;27;20440;-53
2023/10/16 04:02:19;;;;;;;33.67;7.10;;;;;;;4.33;100.00;98543.31;5161237;27;20078;-60
2023/10/16 04:04:46;;;;;;;20.90;5.38;;;;;;;4.38;100.00;98540.38;5160991;27;20086;-58
2023/10/16 04:07:14;;;;;;;10.48;3.63;;;;;;;4.64;100.00;98529.97;5160914;27;20047;-57
2023/10/16 04:09:49;;;;;;;21.25;5.72;;;;;;;4.77;100.00;98491.94;5160813;27;20055;-59
2023/10/16 04:12:17;;;;;;;12.10;4.03;;;;;;;4.76;100.00;98444.19;5161219;27;20061;-55
2023/10/16 04:14:50;;;;;;;20.38;5.47;;;;;;;4.67;100.00;98407.09;5160725;27;20054;-57
2023/10/16 04:17:16;;;;;;;14.98;4.25;;;;;;;4.96;100.00;98388.88;5161145;27;20050;-57
2023/10/16 04:19:52;;;;;;;25.40;5.00;;;;;;;4.86;100.00;98332.34;5160750;27;20051;-58
2023/10/16 04:22:24;;;;;;;16.33;4.38;;;;;;;5.07;100.00;98294.13;5160786;27;20134;-59
2023/10/16 04:24:54;;;;;;;12.90;3.85;;;;;;;5.18;100.00;98252.47;5160385;27;20116;-59
2023/10/16 04:27:29;;;;;;;16.92;4.50;;;;;;;5.09;100.00;98211.09;5160364;27;20399;-58
2023/10/16 04:32:56;;;;;;;19.33;4.95;;;;;;;5.36;100.00;98163.19;5125613;27;20101;-59
2023/10/16 04:35:32;;;;;;;17.38;4.20;;;;;;;5.32;100.00;98083.53;5160745;27;20097;-56
2023/10/16 04:38:27;;;;;;;16.23;4.35;;;;;;;5.29;100.00;98072.59;5160262;27;20332;-59
2023/10/16 04:43:38;;;;;;;10.88;3.38;;;;;;;5.43;100.00;98090.00;5160487;27;20319;-59
2023/10/16 04:46:16;;;;;;;13.02;3.85;;;;;;;5.38;100.00;98062.31;5160447;27;20141;-58
2023/10/16 04:48:51;;;;;;;18.35;5.60;;;;;;;5.40;100.00;98079.03;5160445;27;20408;-57
2023/10/16 04:51:22;;;;;;;13.15;4.57;;;;;;;5.37;100.00;98053.34;5158921;27;20046;-59
2023/10/16 04:53:58;;;;;;;15.18;4.63;;;;;;;5.56;100.00;98049.06;5159654;27;20103;-61
2023/10/16 04:59:36;;;;;;;17.30;4.22;;;;;;;5.41;100.00;97929.19;5160181;27;20057;-59
2023/10/16 05:02:10;;;;;;;26.90;5.25;;;;;;;5.34;100.00;98034.25;5160138;27;20047;-57
2023/10/16 05:07:37;;;;;;;;;;;;;;;5.48;100.00;98041.91;5160397;27;20054;-56
2023/10/16 05:15:51;;;;;;;;;;;;;;;5.61;100.00;97965.28;5160645;27;20206;-56
2023/10/16 05:18:31;;;;;;;16.77;5.05;;;;;;;5.75;100.00;97983.78;5159286;27;20304;-57
2023/10/16 05:21:19;;;;;;;20.08;5.25;;;;;;;5.80;100.00;98056.13;5159342;27;20047;-59
2023/10/16 06:16:01;;;;;;;11.18;3.72;;;;;;;6.36;100.00;98595.41;5158874;27;20053;-61
2023/10/16 06:18:28;;;;;;;7.55;3.60;;;;;;;6.38;100.00;98581.44;5158758;27;20408;-55
2023/10/16 06:20:54;;;;;;;8.18;4.13;;;;;;;6.42;100.00;98573.34;5158388;27;20062;-58
2023/10/16 06:23:20;;;;;;;11.85;3.88;;;;;;;6.52;100.00;98551.03;5158769;27;20130;-56
2023/10/16 06:25:47;;;;;;;10.50;4.07;;;;;;;6.50;100.00;98545.97;5158137;27;20362;-55
2023/10/16 06:28:15;;;;;;;12.57;3.70;;;;;;;6.47;100.00;98560.28;5158633;27;20064;-56
2023/10/16 06:30:41;;;;;;;14.80;4.25;;;;;;;6.52;100.00;98562.72;5158466;27;20130;-57
2023/10/16 06:33:07;;;;;;;6.35;3.88;;;;;;;6.62;100.00;98549.72;5158459;27;20065;-58
2023/10/16 06:35:34;;;;;;;10.15;4.90;;;;;;;6.66;100.00;98532.31;5158465;27;20053;-56
2023/10/16 06:38:01;;;;;;;12.32;3.83;;;;;;;6.76;100.00;98542.66;5158321;27;20056;-61
2023/10/16 06:40:27;;;;;;;10.45;3.58;;;;;;;6.81;100.00;98517.09;5158418;27;20047;-58
2023/10/16 06:43:09;;;;;;;11.45;4.18;;;;;;;6.76;100.00;98501.00;5158052;27;20103;-61
2023/10/16 06:45:41;;;;;;;11.63;4.38;;;;;;;7.02;100.00;98476.66;5158619;27;20072;-57
2023/10/16 06:48:09;;;;;;;8.48;3.45;;;;;;;7.19;100.00;98463.75;5157988;27;20389;-55
2023/10/16 06:50:42;;;;;;;9.90;3.58;;;;;;;7.31;100.00;98425.44;5158419;27;20046;-61
2023/10/16 06:53:08;;;;;;;8.95;4.68;;;;;;;7.37;100.00;98355.84;5158102;27;20055;-58
2023/10/16 06:55:34;;;;;;;6.63;3.25;;;;;;;7.49;100.00;98308.50;5158030;27;20050;-61
2023/10/16 06:58:00;;;;;;;14.77;3.83;;;;;;;7.54;100.00;98275.47;5158207;27;20294;-61
2023/10/16 07:00:26;;;;;;;8.77;2.75;;;;;;;7.51;100.00;98262.56;5157836;27;20085;-59
2023/10/16 07:02:54;;;;;;;7.38;3.65;;;;;;;7.58;100.00;98245.50;5158048;27;20061;-60
2023/10/16 07:05:22;;;;;;;7.47;3.45;;;;;;;7.59;100.00;98162.53;5157685;27;20115;-58
2023/10/16 07:07:49;;;;;;;11.43;3.30;;;;;;;7.60;100.00;98085.81;5157859;27;20145;-60
2023/10/16 07:10:15;;;;;;;5.15;2.92;;;;;;;7.48;100.00;98018.63;5157410;27;20046;-61
2023/10/16 07:12:56;;;;;;;5.18;3.20;;;;;;;7.48;100.00;98024.09;5158172;27;20047;-59
2023/10/16 07:15:25;;;;;;;13.70;4.53;;;;;;;7.48;100.00;98036.94;5156378;27;20055;-58
2023/10/16 07:17:51;;;;;;;5.25;2.72;;;;;;;7.55;100.00;98048.72;5157698;27;20051;-59
2023/10/16 07:20:26;;;;;;;9.35;3.15;;;;;;;7.48;100.00;98012.41;5157552;27;20107;-60
2023/10/16 07:22:56;;;;;;;3.42;2.75;;;;;;;7.31;100.00;98114.63;5157469;27;20145;-59
2023/10/16 07:25:24;;;;;;;5.90;3.38;;;;;;;7.36;100.00;98149.75;5157775;27;20053;-61
2023/10/16 07:27:49;;;;;;;7.55;3.40;;;;;;;7.20;100.00;98176.41;5157522;27;20110;-60
2023/10/16 07:30:21;;;;;;;8.98;3.25;;;;;;;7.29;100.00;98179.63;5157648;27;20050;-58
2023/10/16 07:32:48;;;;;;;12.73;4.00;;;;;;;7.40;100.00;98180.59;5157531;27;20110;-60
2023/10/16 07:35:17;;;;;;;11.07;3.70;;;;;;;7.54;100.00;98142.59;5157464;27;20427;-60
2023/10/16 07:37:48;;;;;;;7.70;3.47;;;;;;;7.59;100.00;98152.41;5156898;27;20336;-58
2023/10/16 07:40:15;;;;;;;12.15;3.47;;;;;;;7.66;100.00;98114.28;5156774;27;20046;-61
2023/10/16 07:42:41;;;;;;;10.50;3.17;;;;;;;7.65;100.00;98063.63;5156831;27;20161;-60
2023/10/16 07:45:08;;;;;;;13.13;4.57;;;;;;;7.81;100.00;98019.00;5157049;27;20054;-60
2023/10/16 07:47:34;;;;;;;10.88;5.53;;;;;;;8.00;100.00;97999.69;5157481;27;20050;-58
2023/10/16 07:50:00;;;;;;;8.32;3.63;;;;;;;8.01;100.00;97941.22;5157054;27;20058;-56
2023/10/16 07:52:28;;;;;;;28.02;11.50;;;;;;;8.04;100.00;97969.72;5157153;27;20057;-62
2023/10/16 07:54:54;;;;;;;9.43;3.75;;;;;;;8.23;100.00;97964.78;5156572;27;20142;-61
2023/10/16 07:57:23;;;;;;;12.02;4.25;;;;;;;8.22;100.00;97894.19;5157223;27;20146;-58
2023/10/16 07:59:54;;;;;;;7.28;3.38;;;;;;;8.37;100.00;97876.72;5156706;27;20431;-58
2023/10/16 08:02:20;;;;;;;9.98;2.88;;;;;;;8.61;100.00;97806.25;5157375;27;20051;-57
2023/10/16 08:04:51;;;;;;;17.60;4.78;;;;;;;8.42;100.00;97818.25;5156796;27;20091;-58
2023/10/16 08:07:18;;;;;;;9.73;3.53;;;;;;;8.67;100.00;97791.84;5157160;27;20065;-53
2023/10/16 08:12:42;;;;;;;10.30;3.58;;;;;;;8.66;100.00;97672.00;5155948;27;20140;-53
2023/10/16 08:15:21;;;;;;;5.38;3.10;;;;;;;8.55;100.00;97650.13;5157412;27;20050;-56
2023/10/16 08:17:48;;;;;;;10.55;3.45;;;;;;;8.39;100.00;97663.38;5156747;27;20051;-57
2023/10/16 08:20:17;;;;;;;5.57;3.05;;;;;;;8.39;100.00;97631.38;5157125;27;20057;-59
2023/10/16 08:22:45;;;;;;;11.43;4.68;;;;;;;8.14;100.00;97702.28;5156960;27;20051;-55
2023/10/16 08:25:30;;;;;;;10.70;3.95;;;;;;;8.08;100.00;97742.00;5157019;27;20051;-56
2023/10/16 08:27:58;;;;;;;10.32;4.03;;;;;;;8.02;100.00;97785.25;5160080;27;20076;-59
2023/10/16 08:30:33;;;;;;;8.68;3.17;;;;;;;8.15;100.00;97825.88;5160219;27;20331;-53
2023/10/16 08:33:06;;;;;;;11.07;3.95;;;;;;;8.24;100.00;97824.38;5160276;27;20392;-58
2023/10/16 08:35:38;;;;;;;5.63;3.38;;;;;;;8.18;100.00;97754.16;5159838;27;20057;-54
2023/10/16 08:38:10;;;;;;;7.28;3.35;;;;;;;8.42;100.00;97720.72;5160390;27;20046;-58
2023/10/16 08:40:39;;;;;;;4.80;2.88;;;;;;;8.57;100.00;97721.56;5159604;27;20443;-56
2023/10/16 08:43:07;;;;;;;4.68;2.60;;;;;;;8.87;100.00;97668.53;5160122;27;20482;-55
2023/10/16 08:45:34;;;;;;;4.70;2.70;;;;;;;9.15;100.00;97496.25;5160403;27;20331;-57
2023/10/16 08:48:01;;;;;;;6.88;2.67;;;;;;;9.56;100.00;97412.84;5160086;27;20069;-56
2023/10/16 08:50:40;;;;;;;4.55;2.33;;;;;;;9.49;100.00;97341.78;5159951;27;20055;-57
2023/10/16 08:53:09;;;;;;;6.20;2.00;;;;;;;9.80;100.00;97329.81;5159809;27;20100;-57
2023/10/16 08:55:35;;;;;;;5.38;2.00;;;;;;;9.78;100.00;97313.00;5159997;27;20056;-59
2023/10/16 08:58:04;;;;;;;3.22;2.05;;;;;;;9.72;100.00;97335.75;5160204;27;20061;-59
2023/10/16 09:00:32;;;;;;;2.45;1.80;;;;;;;9.66;100.00;97335.38;5160109;27;20046;-57
2023/10/16 09:03:00;;;;;;;5.15;2.05;;;;;;;9.83;100.00;97347.38;5159582;27;20514;-58
2023/10/16 09:05:26;;;;;;;3.47;1.55;;;;;;;9.75;100.00;97373.25;5160367;27;20129;-59
2023/10/16 09:07:52;;;;;;;1.52;1.15;;;;;;;9.57;100.00;97403.47;5159752;27;20066;-57
2023/10/16 09:10:21;;;;;;;2.63;1.60;;;;;;;10.00;100.00;97398.47;5159649;27;20042;-60
2023/10/16 09:12:54;;;;;;;4.20;1.75;;;;;;;10.15;100.00;97431.97;5159932;27;20319;-59
2023/10/16 09:15:24;;;;;;;2.28;1.70;;;;;;;9.82;100.00;97458.81;5159563;27;20051;-56
2023/10/16 09:17:51;;;;;;;2.33;1.50;;;;;;;9.77;100.00;97464.72;5159739;27;20047;-60
2023/10/16 09:20:24;;;;;;;7.20;2.40;;;;;;;9.79;100.00;97445.16;5159924;27;20138;-58
2023/10/16 09:22:50;;;;;;;2.28;1.40;;;;;;;9.63;100.00;97397.19;5159808;27;20201;-58
2023/10/16 09:25:22;;;;;;;1.90;1.27;;;;;;;10.46;100.00;97517.03;5159146;27;20451;-55
2023/10/16 09:27:49;;;;;;;3.92;1.58;;;;;;;10.17;100.00;97576.72;5159312;27;20103;-55
2023/10/16 09:30:15;;;;;;;3.97;1.65;;;;;;;9.99;100.00;97509.13;5159212;27;20138;-58
2023/10/16 09:32:42;;;;;;;3.17;1.50;;;;;;;10.60;100.00;97564.31;5159384;27;20192;-59
2023/10/16 09:35:13;;;;;;;12.35;1.58;;;;;;;11.31;100.00;97636.91;5159038;27;20050;-57
2023/10/16 09:37:39;;;;;;;1.38;1.30;;;;;;;11.46;100.00;97684.22;5158225;27;20050;-57
2023/10/16 09:40:18;;;;;;;3.72;1.98;;;;;;;11.61;100.00;97719.75;5159331;27;20179;-58
2023/10/16 09:42:45;;;;;;;2.60;1.77;;;;;;;11.43;100.00;97708.94;5159016;27;20404;-56
2023/10/16 09:45:18;;;;;;;3.50;1.90;;;;;;;11.01;100.00;97686.94;5159364;27;20059;-53
2023/10/16 09:47:48;;;;;;;7.63;1.83;;;;;;;10.51;100.00;97694.72;5159455;27;20046;-57
2023/10/16 09:50:16;;;;;;;3.65;1.98;;;;;;;11.03;100.00;97650.91;5159372;27;20047;-60
2023/10/16 09:52:45;;;;;;;4.13;1.60;;;;;;;10.80;100.00;97685.16;5159475;27;20046;-57
2023/10/16 09:55:12;;;;;;;5.57;1.88;;;;;;;10.18;100.00;97672.16;5159106;27;20069;-59
2023/10/16 09:57:47;;;;;;;2.75;1.55;;;;;;;10.21;100.00;97652.19;5159171;27;20336;-57
2023/10/16 10:00:28;;;;;;;;;;;;;;;10.21;100.00;97635.75;5159341;27;20125;-60
2023/10/16 10:02:57;;;;;;;2.63;1.70;;;;;;;10.09;100.00;97609.59;5158965;27;19923;-58
2023/10/16 10:05:34;;;;;;;1.88;1.77;;;;;;;10.12;100.00;97556.00;5158590;27;20150;-60
2023/10/16 10:08:03;;;;;;;4.57;1.85;;;;;;;10.45;100.00;97617.63;5159046;27;20050;-55
2023/10/16 10:13:33;;;;;;;6.05;1.73;;;;;;;9.84;100.00;97619.91;5157172;27;20058;-62
2023/10/16 10:16:10;;;;;;;2.55;1.67;;;;;;;10.33;100.00;97635.34;5158514;27;20055;-56
2023/10/16 10:18:42;;;;;;;4.65;1.63;;;;;;;10.74;100.00;97692.22;5157973;27;20446;-54
2023/10/16 10:21:18;;;;;;;4.55;1.55;;;;;;;11.03;100.00;97755.13;5158818;27;20046;-57
2023/10/16 10:23:44;;;;;;;2.97;1.35;;;;;;;10.83;100.00;97774.81;5158455;27;20050;-58
2023/10/16 10:26:18;;;;;;;3.35;1.38;;;;;;;10.83;100.00;97802.22;5158883;27;20141;-61
2023/10/16 10:28:45;;;;;;;5.93;1.75;;;;;;;10.82;100.00;97797.13;5158117;27;20091;-57
2023/10/16 10:31:12;;;;;;;1.27;1.02;;;;;;;10.92;100.00;97801.78;5158633;27;20174;-55
2023/10/16 10:33:51;;;;;;;2.38;1.48;;;;;;;10.71;100.00;97801.88;5158920;27;20055;-58
2023/10/16 10:36:34;;;;;;;2.83;1.20;;;;;;;11.19;100.00;97812.97;5158270;27;20055;-60
2023/10/16 10:39:38;;;;;;;1.30;1.20;;;;;;;11.04;100.00;97820.50;5158355;27;20086;-57
2023/10/16 10:42:04;;;;;;;2.33;1.30;;;;;;;10.64;100.00;97796.44;5157926;27;20085;-56
2023/10/16 10:44:31;;;;;;;6.30;1.45;;;;;;;10.68;100.00;97813.66;5158144;27;20134;-59
2023/10/16 10:47:00;;;;;;;3.25;1.27;;;;;;;10.80;100.00;97821.44;5157606;27;20137;-56
2023/10/16 10:49:33;;;;;;;6.60;1.50;;;;;;;10.58;100.00;97813.28;5156782;27;20302;-55
2023/10/16 10:52:00;;;;;;;2.60;1.25;;;;;;;10.66;100.00;97816.00;5157798;27;20086;-57
2023/10/16 10:54:26;;;;;;;4.07;1.60;;;;;;;10.07;100.00;97800.13;5158049;27;20055;-59
2023/10/16 10:56:59;;;;;;;7.13;1.42;;;;;;;10.01;100.00;97815.38;5158114;27;20111;-62
2023/10/16 10:59:39;;;;;;;6.05;1.50;;;;;;;10.66;100.00;97844.19;5152930;27;20133;-61
2023/10/16 11:02:21;;;;;;;3.83;1.10;;;;;;;10.66;100.00;97854.38;5154363;27;20134;-55
2023/10/16 11:04:53;;;;;;;2.08;1.20;;;;;;;10.47;100.00;97809.03;5152516;27;20439;-62
2023/10/16 11:07:25;;;;;;;4.30;1.35;;;;;;;10.66;100.00;97818.75;5137207;28;20075;-60
2023/10/16 11:09:51;;;;;;;1.88;1.23;;;;;;;10.88;100.00;97816.69;5137055;28;20055;-62
2023/10/16 11:12:17;;;;;;;5.97;1.48;;;;;;;11.04;100.00;97793.09;5146908;27;20054;-56
2023/10/16 11:14:43;;;;;;;8.27;1.40;;;;;;;11.15;100.00;97803.22;5157458;27;20050;-59
2023/10/16 11:17:09;;;;;;;5.20;1.50;;;;;;;11.28;100.00;97840.75;5157923;27;20047;-59
2023/10/16 11:19:47;;;;;;;4.10;1.30;;;;;;;11.31;100.00;97845.44;5147133;27;20047;-61
2023/10/16 11:22:18;;;;;;;7.28;1.95;;;;;;;11.45;100.00;97854.75;5141451;27;20127;-59
2023/10/16 11:24:46;;;;;;;5.20;1.70;;;;;;;11.49;100.00;97882.94;5139694;27;20051;-60
2023/10/16 11:27:13;;;;;;;1.85;1.00;;;;;;;11.33;100.00;97913.63;5156405;27;20407;-60
2023/10/16 11:29:40;;;;;;;3.45;1.33;;;;;;;11.24;100.00;97903.09;5136701;28;20397;-61
2023/10/16 11:32:09;;;;;;;2.22;1.05;;;;;;;11.21;100.00;97914.09;5136782;28;20317;-60
2023/10/16 11:34:43;;;;;;;2.55;1.38;;;;;;;10.67;100.00;97925.25;5136966;28;20053;-61
2023/10/16 11:37:12;;;;;;;9.05;2.40;;;;;;;10.99;100.00;97925.13;5141522;27;20174;-56
2023/10/16 11:39:39;;;;;;;18.90;5.50;;;;;;;10.89;100.00;97934.19;5157515;27;20474;-61
2023/10/16 11:42:05;;;;;;;7.95;2.45;;;;;;;10.80;100.00;97936.56;5157300;27;20090;-58
2023/10/16 11:44:32;;;;;;;2.13;1.02;;;;;;;10.55;100.00;97947.56;5157481;27;20054;-59
2023/10/16 11:47:00;;;;;;;4.18;1.48;;;;;;;10.60;100.00;97967.16;5157357;27;20057;-59
2023/10/16 11:49:31;;;;;;;16.67;4.20;;;;;;;10.23;100.00;97953.84;5157395;27;20137;-61
2023/10/16 11:52:08;;;;;;;3.22;1.27;;;;;;;10.44;100.00;97961.31;5157194;27;20050;-61
2023/10/16 11:54:35;;;;;;;30.52;15.27;;;;;;;10.18;100.00;97942.50;5157457;27;20064;-61
2023/10/16 11:57:01;;;;;;;11.18;2.65;;;;;;;10.03;100.00;97945.25;5157438;27;20141;-60
2023/10/16 11:59:29;;;;;;;1.48;0.88;;;;;;;10.09;100.00;97926.44;5155334;27;20051;-60
2023/10/16 12:01:59;;;;;;;6.05;1.83;;;;;;;10.12;100.00;97901.81;5158715;27;20086;-61
2023/10/16 12:04:26;;;;;;;1.83;1.30;;;;;;;10.14;100.00;97917.84;5157341;27;20062;-60
2023/10/16 12:06:53;;;;;;;9.88;2.13;;;;;;;10.12;100.00;97920.19;5158509;27;20195;-60
2023/10/16 12:09:19;;;;;;;3.40;1.33;;;;;;;10.11;100.00;97892.03;5139858;28;20412;-61
2023/10/16 12:11:47;;;;;;;3.63;1.33;;;;;;;10.27;100.00;97896.38;5140155;28;20134;-55
2023/10/16 12:14:13;;;;;;;4.45;1.30;;;;;;;10.33;100.00;97856.44;5150386;27;20046;-55
2023/10/16 12:16:41;;;;;;;4.43;1.60;;;;;;;10.36;100.00;97861.91;5161339;27;20051;-60
2023/10/16 12:19:09;;;;;;;1.83;1.20;;;;;;;10.30;100.00;97877.19;5160442;27;20103;-59
2023/10/16 12:21:35;;;;;;;1.02;0.90;;;;;;;10.18;100.00;97876.78;5160140;27;20457;-58
2023/10/16 12:24:01;;;;;;;9.27;2.88;;;;;;;10.12;100.00;97879.91;5152489;27;20120;-59
2023/10/16 12:26:27;;;;;;;3.65;1.73;;;;;;;9.90;100.00;97840.03;5154101;27;20086;-60
2023/10/16 12:28:53;;;;;;;2.22;1.25;;;;;;;10.55;100.00;97873.59;5148553;27;20115;-56
2023/10/16 12:31:19;;;;;;;4.97;2.38;;;;;;;10.65;100.00;97899.41;5139546;28;20043;-61
2023/10/16 12:33:46;;;;;;;6.90;1.83;;;;;;;10.31;100.00;97903.38;5139986;28;20051;-58
2023/10/16 12:36:12;;;;;;;2.53;1.02;;;;;;;10.32;100.00;97907.69;5139628;28;20172;-60
2023/10/16 12:38:38;;;;;;;2.38;1.02;;;;;;;10.11;100.00;97899.47;5139851;28;20043;-60
2023/10/16 12:41:06;;;;;;;3.83;1.40;;;;;;;9.93;100.00;97887.72;5151540;27;20061;-55
2023/10/16 12:43:32;;;;;;;4.72;1.42;;;;;;;9.78;100.00;97878.75;5160733;27;20054;-58
2023/10/16 12:45:58;;;;;;;2.00;1.48;;;;;;;9.75;100.00;97871.31;5160023;27;20141;-57
2023/10/16 12:48:27;;;;;;;2.40;0.98;;;;;;;9.51;100.00;97859.19;5160277;27;20141;-60
2023/10/16 12:50:59;;;;;;;3.15;1.20;;;;;;;9.29;100.00;97859.13;5159788;27;20110;-59
2023/10/16 12:53:25;;;;;;;2.38;1.35;;;;;;;9.29;100.00;97863.84;5160199;27;20201;-59